Northway Airport
PAOR : now visible

Airfield :











YOU CAN JOIN US ON...

 
LOGIN :

Register | Disclaimer

   EN    FR    IT 

 









Legend :    VFR   Marginal VFR   IFR   Intensive IFR   Very Intensive IFR
Visi :
Ceiling :
>= 8 km
>= 3000ft
5 to 8 km
1000 to 3000 ft
1500m to 5 km
500 to 1000 ft
800 to 1500m
200 to 500 ft
< 800m
< 200 ft
Symbols :   Thunderstorms  Fog  Heavy snow  Heavy precipitations  Wind > 20 kt






- Airport Elevation : 1715 ft
- IATA code : ORT


PAOR - Northway

CURRENT METAR :
  • 111253Z 00000KT 10SM BKN060 BKN110 07/06 A2994 RMK AO2 SLP146 T00720056

EXPIRED METARs :
  • 111153Z 00000KT 10SM BKN050 BKN110 08/06 A2994 RMK AO2 SLP145 70003 T00780056 10100 20072 51006
  • 111053Z 00000KT 10SM BKN050 BKN110 08/06 A2993 RMK AO2 SLP144 T00830061

TAF PAOR
Valid from the 11 at 12:00 until the 12 at 12:00 UTC


111126Z 1112/1212 32006KT P6SM VCSH BKN050 OVC100
PAZA FIR / North America



MET'MAP, your aeronautical weather chart ! - Copyright ORBIFLY December 2007 - Disclaimer

ORBIFLY MET'MAP TEAM :

Programming & Development : Alexandra Zaïnal
Concept & original design : Baudouin d'Aumeries
Assistance for programming : Marc-Olivier Méhu
Technical & hardware support : Manuel Goepfert

Contact : metmap@orbifly.com




SOURCES & CREDITS :

   NOAA       Earth
Advisory